Pinson, Alabama
Current Conditions -  °F | °C
As of 9:53 PM on Friday 28 Nov 2014 (Local Time) from KBHM Reporting Station
Clear Clear  
Wind Chill:   Ceiling: Unl
Heat Index:   Visibility: 10mi
Dew Point: -7°   Wind: 0mph
Humidity: 38%   Direction: NA
Pressure: 30.27"   Gusts: NA
Location:  33.69°N, 86.68°W
Report Text: KBHM 290353Z 00000KT 10SM CLR 06/M07 A3027 RMK AO2 SLP252 T00611072
Loading
Personal Weather Stations






























Interactive Weather Map New forecast layout! Learn more

10-Day Weather Forecast

Advertisements
Track Severe Weather on mobile